createdAt,value
2016-04-25T00:00:33.544Z,18.01
2016-04-25T00:01:33.516Z,18.04
2016-04-25T00:02:33.502Z,18.09
2016-04-25T00:03:33.488Z,18.14
2016-04-25T00:04:33.476Z,18.09
2016-04-25T00:05:33.698Z,18.04
2016-04-25T00:06:33.435Z,18.07
2016-04-25T00:07:33.406Z,18.04
2016-04-25T00:08:33.393Z,18.09
2016-04-25T00:09:33.379Z,18.05
2016-04-25T00:10:33.352Z,18.09
2016-04-25T00:11:33.339Z,17.99
2016-04-25T00:12:33.920Z,18.1
2016-04-25T00:13:33.734Z,18.09
2016-04-25T00:14:33.268Z,18.09
2016-04-25T00:15:33.256Z,18.09
2016-04-25T00:16:33.227Z,18.09
2016-04-25T00:17:33.215Z,18.07
2016-04-25T00:18:33.186Z,18.02
2016-04-25T00:19:33.172Z,18.1
2016-04-25T00:20:33.175Z,18.07
2016-04-25T00:21:33.148Z,18.07
2016-04-25T00:22:33.123Z,18.11
2016-04-25T00:23:33.095Z,18.09
2016-04-25T00:24:33.082Z,18.1
2016-04-25T00:25:33.054Z,18.05
2016-04-25T00:26:33.040Z,17.99
2016-04-25T00:27:33.325Z,17.98
2016-04-25T00:28:33.000Z,17.98
2016-04-25T00:29:32.986Z,18.04
2016-04-25T00:30:32.959Z,18.02
2016-04-25T00:31:32.945Z,17.98
2016-04-25T00:32:32.932Z,17.98
2016-04-25T00:33:32.904Z,17.99
2016-04-25T00:34:32.891Z,17.99
2016-04-25T00:35:32.862Z,17.99
2016-04-25T00:36:32.849Z,18.07
2016-04-25T00:37:32.821Z,17.95
2016-04-25T00:38:32.823Z,18.04
2016-04-25T00:39:32.795Z,17.98
2016-04-25T00:40:32.766Z,18.01
2016-04-25T00:41:32.753Z,17.98
2016-04-25T00:42:33.412Z,17.99
2016-04-25T00:43:32.712Z,17.98
2016-04-25T00:44:32.699Z,17.99
2016-04-25T00:45:32.671Z,17.98
2016-04-25T00:46:32.798Z,17.99
2016-04-25T00:47:32.645Z,17.99
2016-04-25T00:48:32.600Z,17.96
2016-04-25T00:49:32.603Z,17.95
2016-04-25T00:50:32.574Z,17.99
2016-04-25T00:51:32.546Z,17.98
2016-04-25T00:52:32.532Z,17.98
2016-04-25T00:53:32.505Z,17.98
2016-04-25T00:54:32.741Z,17.96
2016-04-25T00:55:32.479Z,17.99
2016-04-25T00:56:32.450Z,17.98
2016-04-25T00:57:32.329Z,17.95
2016-04-25T00:58:32.424Z,17.96
2016-04-25T00:59:32.412Z,17.91
2016-04-25T01:00:32.382Z,17.89
2016-04-25T01:01:32.353Z,17.89
2016-04-25T01:02:32.794Z,17.86
2016-04-25T01:03:32.345Z,17.99
2016-04-25T01:04:32.315Z,17.99
2016-04-25T01:05:32.287Z,17.96
2016-04-25T01:06:32.258Z,18.01
2016-04-25T01:07:32.245Z,17.96
2016-04-25T01:08:32.233Z,17.99
2016-04-25T01:09:32.204Z,17.86
2016-04-25T01:10:32.784Z,17.83
2016-04-25T01:11:32.161Z,18.02
2016-04-25T01:12:31.868Z,17.98
2016-04-25T01:13:32.121Z,17.96
2016-04-25T01:14:32.108Z,17.96
2016-04-25T01:15:32.079Z,17.86
2016-04-25T01:16:32.066Z,17.95
2016-04-25T01:17:32.038Z,17.99
2016-04-25T01:18:32.041Z,17.96
2016-04-25T01:19:32.012Z,17.94
2016-04-25T01:20:31.983Z,17.91
2016-04-25T01:21:31.970Z,17.94
2016-04-25T01:22:31.958Z,17.91
2016-04-25T01:23:31.929Z,17.87
2016-04-25T01:24:31.915Z,17.92
2016-04-25T01:25:31.887Z,17.91
2016-04-25T01:26:32.062Z,17.94
2016-04-25T01:27:31.862Z,17.92
2016-04-25T01:28:31.896Z,18.02
2016-04-25T01:29:31.804Z,17.84
2016-04-25T01:30:31.792Z,17.86
2016-04-25T01:31:31.795Z,17.83
2016-04-25T01:32:31.781Z,17.83
2016-04-25T01:33:31.737Z,17.81
2016-04-25T01:34:32.115Z,17.77
2016-04-25T01:35:31.695Z,17.77
2016-04-25T01:36:31.698Z,17.89
2016-04-25T01:37:31.654Z,17.87
2016-04-25T01:38:31.641Z,17.79
2016-04-25T01:39:31.628Z,17.8
2016-04-25T01:40:31.584Z,17.79
2016-04-25T01:41:31.681Z,17.8
2016-04-25T01:42:31.261Z,17.8
2016-04-25T01:43:31.529Z,17.74
2016-04-25T01:44:31.516Z,17.8
2016-04-25T01:45:31.503Z,17.74
2016-04-25T01:46:31.475Z,17.8
2016-04-25T01:47:31.463Z,17.79
2016-04-25T01:48:31.449Z,17.73
2016-04-25T01:49:31.733Z,17.66
2016-04-25T01:50:31.408Z,17.66
2016-04-25T01:51:31.410Z,17.76
2016-04-25T01:52:31.382Z,17.68
2016-04-25T01:53:31.338Z,17.71
2016-04-25T01:54:31.310Z,17.66
2016-04-25T01:55:31.296Z,17.68
2016-04-25T01:56:31.268Z,17.62
2016-04-25T01:57:31.567Z,17.63
2016-04-25T01:58:31.445Z,17.63
2016-04-25T01:59:31.213Z,17.6
2016-04-25T02:00:31.215Z,17.66
2016-04-25T02:01:31.188Z,17.57
2016-04-25T02:02:31.159Z,17.53
2016-04-25T02:03:31.162Z,17.6
2016-04-25T02:04:31.133Z,17.57
2016-04-25T02:05:31.714Z,17.58
2016-04-25T02:06:31.076Z,17.55
2016-04-25T02:07:31.048Z,17.62
2016-04-25T02:08:31.034Z,17.57
2016-04-25T02:09:31.022Z,17.58
2016-04-25T02:10:31.024Z,17.58
2016-04-25T02:11:30.996Z,17.46
2016-04-25T02:12:30.983Z,17.49
2016-04-25T02:13:31.657Z,17.54
2016-04-25T02:14:30.925Z,17.45
2016-04-25T02:15:30.913Z,17.45
2016-04-25T02:16:30.884Z,17.43
2016-04-25T02:17:30.871Z,17.51
2016-04-25T02:18:30.842Z,17.46
2016-04-25T02:19:30.829Z,17.54
2016-04-25T02:20:30.801Z,17.38
2016-04-25T02:21:31.008Z,17.45
2016-04-25T02:22:30.775Z,17.4
2016-04-25T02:23:30.746Z,17.45
2016-04-25T02:24:30.718Z,17.42
2016-04-25T02:25:30.720Z,17.38
2016-04-25T02:26:30.677Z,17.46
2016-04-25T02:27:30.977Z,17.4
2016-04-25T02:28:30.759Z,17.43
2016-04-25T02:29:31.779Z,17.42
2016-04-25T02:30:30.609Z,17.43
2016-04-25T02:31:30.596Z,17.32
2016-04-25T02:32:30.584Z,17.39
2016-04-25T02:33:30.555Z,17.45
2016-04-25T02:34:30.543Z,17.39
2016-04-25T02:35:30.513Z,17.43
2016-04-25T02:36:30.578Z,17.35
2016-04-25T02:37:30.487Z,17.47
2016-04-25T02:38:30.458Z,17.42
2016-04-25T02:39:30.430Z,17.36
2016-04-25T02:40:30.402Z,17.27
2016-04-25T02:41:30.404Z,17.4
2016-04-25T02:42:30.392Z,17.32
2016-04-25T02:43:31.316Z,17.4
2016-04-25T02:44:30.631Z,17.39
2016-04-25T02:45:30.306Z,17.38
2016-04-25T02:46:30.293Z,17.38
2016-04-25T02:47:30.280Z,17.38
2016-04-25T02:48:30.252Z,17.28
2016-04-25T02:49:30.223Z,17.27
2016-04-25T02:50:30.225Z,17.36
2016-04-25T02:51:30.181Z,17.36
2016-04-25T02:52:30.622Z,17.33
2016-04-25T02:53:30.155Z,17.21
2016-04-25T02:54:30.158Z,17.28
2016-04-25T02:55:29.973Z,17.3
2016-04-25T02:56:30.102Z,17.36
2016-04-25T02:57:30.104Z,17.33
2016-04-25T02:58:30.810Z,17.24
2016-04-25T02:59:30.032Z,17.28
2016-04-25T03:00:30.674Z,17.28
2016-04-25T03:01:30.005Z,17.35
2016-04-25T03:02:29.976Z,17.21
2016-04-25T03:03:29.964Z,17.24
2016-04-25T03:04:29.951Z,17.22
2016-04-25T03:05:29.906Z,17.21
2016-04-25T03:06:29.894Z,17.21
2016-04-25T03:07:29.881Z,17.1
2016-04-25T03:08:29.930Z,17.21
2016-04-25T03:09:29.839Z,17.2
2016-04-25T03:10:29.811Z,17.18
2016-04-25T03:11:29.798Z,17.21
2016-04-25T03:12:29.784Z,17.17
2016-04-25T03:13:31.287Z,17.18
2016-04-25T03:14:29.743Z,17.15
2016-04-25T03:15:29.714Z,17.2
2016-04-25T03:16:29.952Z,17.2
2016-04-25T03:17:29.673Z,17.21
2016-04-25T03:18:29.660Z,17.09
2016-04-25T03:19:29.632Z,17.2
2016-04-25T03:20:29.634Z,17.17
2016-04-25T03:21:29.605Z,17.17
2016-04-25T03:22:29.577Z,17.27
2016-04-25T03:23:29.564Z,17.12
2016-04-25T03:24:29.941Z,17.14
2016-04-25T03:25:29.522Z,17.22
2016-04-25T03:26:29.510Z,17.12
2016-04-25T03:27:29.482Z,17.1
2016-04-25T03:28:29.515Z,17.14
2016-04-25T03:29:29.455Z,17.14
2016-04-25T03:30:29.426Z,17.12
2016-04-25T03:31:29.413Z,17.1
2016-04-25T03:32:29.386Z,17.12
2016-04-25T03:33:29.372Z,17.1
2016-04-25T03:34:29.344Z,17.09
2016-04-25T03:35:29.331Z,17.15
2016-04-25T03:36:29.302Z,17.12
2016-04-25T03:37:29.274Z,17.15
2016-04-25T03:38:29.276Z,17.15
2016-04-25T03:39:29.264Z,17.17
2016-04-25T03:40:29.234Z,17.09
2016-04-25T03:41:29.206Z,17.15
2016-04-25T03:42:29.178Z,17.12
2016-04-25T03:43:29.009Z,17.06
2016-04-25T03:44:29.152Z,17.09
2016-04-25T03:45:29.123Z,17.07
2016-04-25T03:46:29.095Z,17.09
2016-04-25T03:47:29.098Z,17.02
2016-04-25T03:48:29.053Z,17.03
2016-04-25T03:49:29.041Z,17.12
2016-04-25T03:50:29.012Z,17
2016-04-25T03:51:28.999Z,17.03
2016-04-25T03:52:28.986Z,17
2016-04-25T03:53:28.973Z,16.98
2016-04-25T03:54:28.944Z,17.03
2016-04-25T03:55:28.916Z,17.05
2016-04-25T03:56:28.903Z,17.06
2016-04-25T03:57:28.984Z,17
2016-04-25T03:58:29.049Z,17.02
2016-04-25T03:59:28.848Z,16.98
2016-04-25T04:00:28.820Z,16.96
2016-04-25T04:01:28.808Z,17.03
2016-04-25T04:02:28.779Z,16.99
2016-04-25T04:03:28.765Z,17.05
2016-04-25T04:04:28.752Z,17.87
2016-04-25T04:05:28.974Z,19.12
2016-04-25T04:06:28.712Z,20.17
2016-04-25T04:07:28.682Z,21.43
2016-04-25T04:08:28.654Z,22.69
2016-04-25T04:09:28.641Z,23.84
2016-04-25T04:10:28.613Z,24.77
2016-04-25T04:11:28.631Z,25.69
2016-04-25T04:12:28.586Z,26.36
2016-04-25T04:13:28.980Z,26.78
2016-04-25T04:14:28.546Z,27.24
2016-04-25T04:15:28.532Z,27.28
2016-04-25T04:16:28.535Z,27.34
2016-04-25T04:17:28.506Z,27.4
2016-04-25T04:18:28.494Z,27.09
2016-04-25T04:19:28.497Z,27.03
2016-04-25T04:20:28.467Z,26.86
2016-04-25T04:21:29.003Z,26.54
2016-04-25T04:22:28.426Z,26.24
2016-04-25T04:23:28.414Z,26.06
2016-04-25T04:24:28.400Z,25.79
2016-04-25T04:25:28.403Z,25.49
2016-04-25T04:26:28.374Z,25.09
2016-04-25T04:27:28.362Z,24.75
2016-04-25T04:28:28.427Z,24.6
2016-04-25T04:29:29.024Z,24.3
2016-04-25T04:30:28.307Z,24.05
2016-04-25T04:31:28.294Z,23.9
2016-04-25T04:32:28.281Z,23.63
2016-04-25T04:33:28.269Z,23.42
2016-04-25T04:34:28.240Z,23.21
2016-04-25T04:35:28.227Z,23.01
2016-04-25T04:36:28.213Z,22.88
2016-04-25T04:37:28.248Z,22.74
2016-04-25T04:38:28.204Z,22.59
2016-04-25T04:39:28.159Z,22.54
2016-04-25T04:40:28.146Z,22.49
2016-04-25T04:41:28.118Z,22.3
2016-04-25T04:42:28.105Z,22.15
2016-04-25T04:43:28.842Z,22.14
2016-04-25T04:44:28.079Z,22.08
2016-04-25T04:45:28.269Z,22.04
2016-04-25T04:46:28.038Z,22.09
2016-04-25T04:47:28.025Z,22.14
2016-04-25T04:48:28.012Z,22.21
2016-04-25T04:49:28.014Z,22.35
2016-04-25T04:50:27.986Z,22.52
2016-04-25T04:51:27.958Z,22.56
2016-04-25T04:52:27.945Z,22.63
2016-04-25T04:53:28.291Z,22.74
2016-04-25T04:54:27.919Z,22.79
2016-04-25T04:55:27.905Z,22.93
2016-04-25T04:56:27.892Z,23.12
2016-04-25T04:57:27.864Z,23.25
2016-04-25T04:58:27.819Z,23.49
2016-04-25T04:59:27.838Z,23.57
2016-04-25T05:00:27.903Z,23.67
2016-04-25T05:01:27.797Z,23.67
2016-04-25T05:02:27.768Z,23.6
2016-04-25T05:03:27.755Z,23.49
2016-04-25T05:04:27.774Z,23.39
2016-04-25T05:05:27.730Z,23.42
2016-04-25T05:06:27.732Z,23.23
2016-04-25T05:07:27.704Z,23.15
2016-04-25T05:08:27.940Z,23.07
2016-04-25T05:09:27.662Z,23
2016-04-25T05:10:27.634Z,22.93
2016-04-25T05:11:27.637Z,23.14
2016-04-25T05:12:27.643Z,23.42
2016-04-25T05:13:27.408Z,23.77
2016-04-25T05:14:27.706Z,24.08
2016-04-25T05:15:27.736Z,24.29
2016-04-25T05:16:28.112Z,24.48
2016-04-25T05:17:27.761Z,24.52
2016-04-25T05:18:27.764Z,24.77
2016-04-25T05:19:27.766Z,25.02
2016-04-25T05:20:27.754Z,25.05
2016-04-25T05:21:27.772Z,25.12
2016-04-25T05:22:27.766Z,25.16
2016-04-25T05:23:27.744Z,25.14
2016-04-25T05:24:28.284Z,25.19
2016-04-25T05:25:27.730Z,25.12
2016-04-25T05:26:27.722Z,25.01
2016-04-25T05:27:27.696Z,24.98
2016-04-25T05:28:27.935Z,24.93
2016-04-25T05:29:27.705Z,24.9
2016-04-25T05:30:27.664Z,24.84
2016-04-25T05:31:27.637Z,24.7
2016-04-25T05:32:28.281Z,24.52
2016-04-25T05:33:27.613Z,24.41
2016-04-25T05:34:27.616Z,24.3
2016-04-25T05:35:27.588Z,24.23
2016-04-25T05:36:27.576Z,24.26
2016-04-25T05:37:27.549Z,24.23
2016-04-25T05:38:27.535Z,24.23
2016-04-25T05:39:27.523Z,24.24
2016-04-25T05:40:27.573Z,24.27
2016-04-25T05:41:27.498Z,24.23
2016-04-25T05:42:27.484Z,24.12
2016-04-25T05:43:27.879Z,24.11
2016-04-25T05:44:27.444Z,24.14
2016-04-25T05:45:27.430Z,24.11
2016-04-25T05:46:27.417Z,24.15
2016-04-25T05:47:27.389Z,24.19
2016-04-25T05:48:27.580Z,24.29
2016-04-25T05:49:27.379Z,24.44
2016-04-25T05:50:27.350Z,24.46
2016-04-25T05:51:27.337Z,24.55
2016-04-25T05:52:27.309Z,24.52
2016-04-25T05:53:27.296Z,24.67
2016-04-25T05:54:27.282Z,24.79
2016-04-25T05:55:27.270Z,25.01
2016-04-25T05:56:27.554Z,25.12
2016-04-25T05:57:27.244Z,25.16
2016-04-25T05:58:27.294Z,25.36
2016-04-25T05:59:27.202Z,25.42
2016-04-25T06:00:27.190Z,25.54
2016-04-25T06:01:27.176Z,25.63
2016-04-25T06:02:27.164Z,25.48
2016-04-25T06:03:27.307Z,25.39
2016-04-25T06:04:27.622Z,25.23
2016-04-25T06:05:27.110Z,25.14
2016-04-25T06:06:27.096Z,25.14
2016-04-25T06:07:27.084Z,25.08
2016-04-25T06:08:27.055Z,25.05
2016-04-25T06:09:27.042Z,25.14
2016-04-25T06:10:27.045Z,25.22
2016-04-25T06:11:27.219Z,25.29
2016-04-25T06:12:27.003Z,25.3
2016-04-25T06:13:27.756Z,25.38
2016-04-25T06:14:26.962Z,25.45
2016-04-25T06:15:26.948Z,25.46
2016-04-25T06:16:26.936Z,25.49
2016-04-25T06:17:26.923Z,25.53
2016-04-25T06:18:26.925Z,25.63
2016-04-25T06:19:27.194Z,25.71
2016-04-25T06:20:26.884Z,25.82
2016-04-25T06:21:26.855Z,25.86
2016-04-25T06:22:26.843Z,25.9
2016-04-25T06:23:26.831Z,25.75
2016-04-25T06:24:26.802Z,25.74
2016-04-25T06:25:26.805Z,25.71
2016-04-25T06:26:26.776Z,25.83
2016-04-25T06:27:27.217Z,25.72
2016-04-25T06:28:29.000Z,25.76
2016-04-25T06:29:27.378Z,25.86
2016-04-25T06:30:26.740Z,25.86
2016-04-25T06:31:26.727Z,25.98
2016-04-25T06:32:26.683Z,25.96
2016-04-25T06:33:26.873Z,25.98
2016-04-25T06:34:26.672Z,25.89
2016-04-25T06:35:27.239Z,25.89
2016-04-25T06:36:26.631Z,25.75
2016-04-25T06:37:26.618Z,25.82
2016-04-25T06:38:26.591Z,25.76
2016-04-25T06:39:26.576Z,25.69
2016-04-25T06:40:26.580Z,25.64
2016-04-25T06:41:26.566Z,25.42
2016-04-25T06:42:26.538Z,25.46
2016-04-25T06:43:28.665Z,25.51
2016-04-25T06:44:28.388Z,25.57
2016-04-25T06:45:26.499Z,25.56
2016-04-25T06:46:26.471Z,25.51
2016-04-25T06:47:26.457Z,25.48
2016-04-25T06:48:26.446Z,25.51
2016-04-25T06:49:26.431Z,25.57
2016-04-25T06:50:26.419Z,25.71
2016-04-25T06:51:26.500Z,25.79
2016-04-25T06:52:26.378Z,25.63
2016-04-25T06:53:26.364Z,25.67
2016-04-25T06:54:26.384Z,25.67
2016-04-25T06:55:26.339Z,25.61
2016-04-25T06:56:26.326Z,25.57
2016-04-25T06:57:26.297Z,25.42
2016-04-25T06:58:26.300Z,25.41
2016-04-25T06:59:27.412Z,25.34
2016-04-25T07:00:26.259Z,25.26
2016-04-25T07:01:26.245Z,25.24
2016-04-25T07:02:26.216Z,25.38
2016-04-25T07:03:26.203Z,25.31
2016-04-25T07:04:26.206Z,25.29
2016-04-25T07:05:26.178Z,25.3
2016-04-25T07:06:26.181Z,25.39
2016-04-25T07:07:29.652Z,25.42
2016-04-25T07:08:26.139Z,25.49
2016-04-25T07:09:26.127Z,25.56
2016-04-25T07:10:26.113Z,25.46
2016-04-25T07:11:26.085Z,25.51
2016-04-25T07:12:26.838Z,25.49
2016-04-25T07:13:25.902Z,25.46
2016-04-25T07:14:27.046Z,25.39
2016-04-25T07:15:26.049Z,25.34
2016-04-25T07:16:26.004Z,25.36
2016-04-25T07:17:27.163Z,25.76
2016-04-25T07:18:25.979Z,25.96
2016-04-25T07:19:25.966Z,25.91
2016-04-25T07:20:25.953Z,25.72
2016-04-25T07:21:25.924Z,25.57
2016-04-25T07:22:26.145Z,25.53
2016-04-25T07:23:25.914Z,25.31
2016-04-25T07:24:25.885Z,25.17
2016-04-25T07:25:25.873Z,25.12
2016-04-25T07:26:25.890Z,25.17
2016-04-25T07:27:25.862Z,25.3
2016-04-25T07:28:26.193Z,25.38
2016-04-25T07:29:26.461Z,25.51
2016-04-25T07:30:25.792Z,25.75
2016-04-25T07:31:25.779Z,25.79
2016-04-25T07:32:26.048Z,25.93
2016-04-25T07:33:25.753Z,25.89
2016-04-25T07:34:25.772Z,25.98
2016-04-25T07:35:25.728Z,25.89
2016-04-25T07:36:25.714Z,25.86
2016-04-25T07:37:26.483Z,25.79
2016-04-25T07:38:25.672Z,25.76
2016-04-25T07:39:25.676Z,25.56
2016-04-25T07:40:25.647Z,25.48
2016-04-25T07:41:25.635Z,25.36
2016-04-25T07:42:26.918Z,25.29
2016-04-25T07:43:25.999Z,25.17
2016-04-25T07:44:26.345Z,25.04
2016-04-25T07:45:25.567Z,24.77
2016-04-25T07:46:25.554Z,24.77
2016-04-25T07:47:25.526Z,24.63
2016-04-25T07:48:25.574Z,24.48
2016-04-25T07:49:25.499Z,24.46
2016-04-25T07:50:25.487Z,24.33
2016-04-25T07:51:25.473Z,24.15
2016-04-25T07:52:25.774Z,24.12
2016-04-25T07:53:25.448Z,24.16
2016-04-25T07:54:25.435Z,24.11
2016-04-25T07:55:25.423Z,24.04
2016-04-25T07:56:25.550Z,24.15
2016-04-25T07:57:26.958Z,24.21
2016-04-25T07:58:25.571Z,24.34
2016-04-25T07:59:25.589Z,24.44
2016-04-25T08:00:25.342Z,24.49
2016-04-25T08:01:25.314Z,24.44
2016-04-25T08:02:25.597Z,24.39
2016-04-25T08:03:25.287Z,24.31
2016-04-25T08:04:25.572Z,24.27
2016-04-25T08:05:25.261Z,24.21
2016-04-25T08:06:25.233Z,24.23
2016-04-25T08:07:25.736Z,24.27
2016-04-25T08:08:25.207Z,24.39
2016-04-25T08:09:25.178Z,24.59
2016-04-25T08:10:25.181Z,24.64
2016-04-25T08:11:25.169Z,24.79
2016-04-25T08:12:26.773Z,24.89
2016-04-25T08:13:28.058Z,25.05
2016-04-25T08:14:25.107Z,25.11
2016-04-25T08:15:25.109Z,25.14
2016-04-25T08:16:25.080Z,25.14
2016-04-25T08:17:25.069Z,25.19
2016-04-25T08:18:25.055Z,25.23
2016-04-25T08:19:25.027Z,25.34
2016-04-25T08:20:25.607Z,25.29
2016-04-25T08:21:25.000Z,25.29
2016-04-25T08:22:24.739Z,25.26
2016-04-25T08:23:24.960Z,25.11
2016-04-25T08:24:24.962Z,25.07
2016-04-25T08:25:24.950Z,25.07
2016-04-25T08:26:24.922Z,25.09
2016-04-25T08:27:24.908Z,25.11
2016-04-25T08:28:27.848Z,25.29
2016-04-25T08:29:24.992Z,25.2
2016-04-25T08:30:24.854Z,25.36
2016-04-25T08:31:24.841Z,25.48
2016-04-25T08:32:24.828Z,25.51
2016-04-25T08:33:24.815Z,25.42
2016-04-25T08:34:24.803Z,25.29
2016-04-25T08:35:24.805Z,25.29
2016-04-25T08:36:24.870Z,25.29
2016-04-25T08:37:24.747Z,25.34
2016-04-25T08:38:24.735Z,25.49
2016-04-25T08:39:24.707Z,25.56
2016-04-25T08:40:24.709Z,25.71
2016-04-25T08:41:24.701Z,25.79
2016-04-25T08:42:24.673Z,26.03
2016-04-25T08:43:24.518Z,26.03
2016-04-25T08:44:24.409Z,26.09
2016-04-25T08:45:24.634Z,26.08
2016-04-25T08:46:24.605Z,26.06
2016-04-25T08:47:24.605Z,26.03
2016-04-25T08:48:24.576Z,25.96
2016-04-25T08:49:24.579Z,25.79
2016-04-25T08:50:24.551Z,25.71
2016-04-25T08:51:24.537Z,25.59
2016-04-25T08:52:24.871Z,25.56
2016-04-25T08:53:24.512Z,25.71
2016-04-25T08:54:24.498Z,25.6
2016-04-25T08:55:24.486Z,25.61
2016-04-25T08:56:24.458Z,25.83
2016-04-25T08:57:24.444Z,25.81
2016-04-25T08:58:24.338Z,25.93
2016-04-25T08:59:24.341Z,25.98
2016-04-25T09:00:24.406Z,26.03
2016-04-25T09:01:24.392Z,25.85
2016-04-25T09:02:24.364Z,25.96
2016-04-25T09:03:24.351Z,25.96
2016-04-25T09:04:24.338Z,25.86
2016-04-25T09:05:24.325Z,25.94
2016-04-25T09:06:24.313Z,25.96
2016-04-25T09:07:24.502Z,26.06
2016-04-25T09:08:24.286Z,26.06
2016-04-25T09:09:24.274Z,26.19
2016-04-25T09:10:24.246Z,26.29
2016-04-25T09:11:24.232Z,26.31
2016-04-25T09:12:24.219Z,26.31
2016-04-25T09:13:23.893Z,26.24
2016-04-25T09:14:24.224Z,26.28
2016-04-25T09:15:24.509Z,26.34
2016-04-25T09:16:24.155Z,26.36
2016-04-25T09:17:24.143Z,26.51
2016-04-25T09:18:24.130Z,26.54
2016-04-25T09:19:24.102Z,26.51
2016-04-25T09:20:24.088Z,26.42
2016-04-25T09:21:24.091Z,26.36
2016-04-25T09:22:24.063Z,26.24
2016-04-25T09:23:24.550Z,26.27
2016-04-25T09:24:24.037Z,26.03
2016-04-25T09:25:24.024Z,26.09
2016-04-25T09:26:25.088Z,26.11
2016-04-25T09:27:23.982Z,25.91
2016-04-25T09:28:24.001Z,25.89
2016-04-25T09:29:24.691Z,25.74
2016-04-25T09:30:23.959Z,25.51
2016-04-25T09:31:24.524Z,25.44
2016-04-25T09:32:23.917Z,25.17
2016-04-25T09:33:23.921Z,25.07
2016-04-25T09:34:23.892Z,24.98
2016-04-25T09:35:23.878Z,25.01
2016-04-25T09:36:23.850Z,24.83
2016-04-25T09:37:23.837Z,24.93
2016-04-25T09:38:23.825Z,24.93
2016-04-25T09:39:23.811Z,24.79
2016-04-25T09:40:23.798Z,24.9
2016-04-25T09:41:23.770Z,25.01
2016-04-25T09:42:23.788Z,25.02
2016-04-25T09:43:23.759Z,25.02
2016-04-25T09:44:25.591Z,25.02
2016-04-25T09:45:23.702Z,25.02
2016-04-25T09:46:23.705Z,25.12
2016-04-25T09:47:23.849Z,25.3
2016-04-25T09:48:23.664Z,25.42
2016-04-25T09:49:23.650Z,25.48
2016-04-25T09:50:23.638Z,25.49
2016-04-25T09:51:23.625Z,25.53
2016-04-25T09:52:23.612Z,25.53
2016-04-25T09:53:23.583Z,25.46
2016-04-25T09:54:23.585Z,25.56
2016-04-25T09:55:23.885Z,25.67
2016-04-25T09:56:23.544Z,25.72
2016-04-25T09:57:23.532Z,25.76
2016-04-25T09:58:23.518Z,26
2016-04-25T09:59:24.443Z,25.93
2016-04-25T10:00:23.493Z,25.98
2016-04-25T10:01:23.465Z,26.01
2016-04-25T10:02:23.467Z,26.03
2016-04-25T10:03:23.829Z,26.06
2016-04-25T10:04:23.425Z,26.06
2016-04-25T10:05:23.412Z,25.96
2016-04-25T10:06:23.384Z,25.94
2016-04-25T10:07:23.371Z,25.98
2016-04-25T10:08:23.358Z,25.89
2016-04-25T10:09:23.345Z,25.81
2016-04-25T10:10:23.426Z,25.97
2016-04-25T10:11:23.304Z,26.03
2016-04-25T10:12:23.306Z,25.91
2016-04-25T10:13:23.277Z,26.03
2016-04-25T10:14:23.218Z,26.01
2016-04-25T10:15:23.253Z,25.89
2016-04-25T10:16:23.223Z,25.83
2016-04-25T10:17:23.211Z,25.82
2016-04-25T10:18:23.463Z,26.01
2016-04-25T10:19:23.216Z,26.08
2016-04-25T10:20:23.188Z,26.2
2016-04-25T10:21:23.159Z,26.21
2016-04-25T10:22:23.146Z,26.23
2016-04-25T10:23:23.132Z,26.29
2016-04-25T10:24:23.104Z,26.27
2016-04-25T10:25:23.091Z,26.19
2016-04-25T10:26:23.485Z,26.39
2016-04-25T10:27:23.097Z,26.47
2016-04-25T10:28:23.099Z,26.49
2016-04-25T10:29:23.665Z,26.47
2016-04-25T10:30:23.043Z,26.53
2016-04-25T10:31:22.880Z,26.53
2016-04-25T10:32:23.007Z,26.47
2016-04-25T10:33:22.993Z,26.47
2016-04-25T10:34:24.433Z,26.46
2016-04-25T10:35:33.387Z,26.35
2016-04-25T10:36:22.934Z,26.28
2016-04-25T10:37:22.904Z,26.24
2016-04-25T10:38:22.907Z,26.09
2016-04-25T10:39:22.879Z,26.09
2016-04-25T10:40:22.882Z,26.04
2016-04-25T10:41:22.854Z,26.04
2016-04-25T10:42:23.497Z,25.98
2016-04-25T10:43:22.842Z,26.11
2016-04-25T10:44:23.048Z,26.06
2016-04-25T10:45:22.801Z,26
2016-04-25T10:46:22.773Z,25.98
2016-04-25T10:47:22.760Z,25.93
2016-04-25T10:48:22.747Z,25.85
2016-04-25T10:49:22.750Z,25.76
2016-04-25T10:50:22.722Z,25.6
2016-04-25T10:51:22.708Z,25.53
2016-04-25T10:52:22.695Z,25.53
2016-04-25T10:53:22.666Z,25.6
2016-04-25T10:54:22.669Z,25.72
2016-04-25T10:55:22.640Z,25.69
2016-04-25T10:56:22.644Z,25.72
2016-04-25T10:57:22.599Z,25.72
2016-04-25T10:58:22.602Z,25.75
2016-04-25T10:59:22.323Z,25.72
2016-04-25T11:00:22.577Z,25.79
2016-04-25T11:01:22.563Z,25.78
2016-04-25T11:02:22.551Z,25.85
2016-04-25T11:03:22.521Z,25.89
2016-04-25T11:04:22.493Z,25.91
2016-04-25T11:05:22.496Z,25.83
2016-04-25T11:06:22.795Z,25.82
2016-04-25T11:07:22.501Z,25.86
2016-04-25T11:08:22.457Z,25.86
2016-04-25T11:09:22.445Z,25.93
2016-04-25T11:10:22.415Z,25.94
2016-04-25T11:11:22.403Z,26.06
2016-04-25T11:12:22.374Z,25.9
2016-04-25T11:13:22.376Z,26.08
2016-04-25T11:14:23.441Z,25.94
2016-04-25T11:15:22.351Z,25.98
2016-04-25T11:16:22.322Z,25.94
2016-04-25T11:17:22.309Z,25.81
2016-04-25T11:18:22.297Z,25.89
2016-04-25T11:19:22.284Z,25.82
2016-04-25T11:20:22.270Z,25.79
2016-04-25T11:21:22.242Z,25.72
2016-04-25T11:22:22.230Z,25.74
2016-04-25T11:23:22.216Z,25.53
2016-04-25T11:24:22.203Z,25.59
2016-04-25T11:25:22.190Z,25.57
2016-04-25T11:26:22.177Z,25.48
2016-04-25T11:27:22.149Z,25.36
2016-04-25T11:28:22.136Z,25.41
2016-04-25T11:29:22.030Z,25.45
2016-04-25T11:30:22.126Z,25.41
2016-04-25T11:31:22.504Z,25.39
2016-04-25T11:32:22.100Z,25.35
2016-04-25T11:33:22.071Z,25.35
2016-04-25T11:34:22.043Z,25.49
2016-04-25T11:35:22.045Z,25.72
2016-04-25T11:36:22.048Z,25.82
2016-04-25T11:37:21.988Z,25.93
2016-04-25T11:38:21.990Z,26.17
2016-04-25T11:39:21.962Z,26.21
2016-04-25T11:40:27.668Z,26.16
2016-04-25T11:41:21.936Z,26.06
2016-04-25T11:42:21.908Z,26.06
2016-04-25T11:43:21.911Z,26.13
2016-04-25T11:44:22.725Z,26.16
2016-04-25T11:45:21.869Z,26
2016-04-25T11:46:21.872Z,26
2016-04-25T11:47:21.817Z,25.94
2016-04-25T11:48:22.194Z,25.96
2016-04-25T11:49:21.811Z,25.97
2016-04-25T11:50:21.814Z,26.2
2016-04-25T11:51:21.786Z,26.13
2016-04-25T11:52:21.772Z,26.19
2016-04-25T11:53:21.765Z,26.12
2016-04-25T11:54:21.735Z,26.03
2016-04-25T11:55:21.817Z,26.08
2016-04-25T11:56:21.710Z,26.03
2016-04-25T11:57:21.698Z,26.13
2016-04-25T11:58:21.685Z,26.16
2016-04-25T11:59:21.515Z,26.23
2016-04-25T12:00:21.643Z,26.12
2016-04-25T12:01:21.629Z,26.11
2016-04-25T12:02:21.617Z,26.2
2016-04-25T12:03:21.807Z,26.12
2016-04-25T12:04:21.607Z,26.08
2016-04-25T12:05:21.578Z,26.11
2016-04-25T12:06:21.565Z,25.98
2016-04-25T12:07:21.583Z,26.04
2016-04-25T12:08:21.539Z,25.83
2016-04-25T12:09:21.542Z,25.83
2016-04-25T12:10:21.514Z,25.67
2016-04-25T12:11:21.828Z,25.71
2016-04-25T12:12:21.488Z,25.61
2016-04-25T12:13:21.459Z,25.54
2016-04-25T12:14:21.321Z,25.44
2016-04-25T12:15:21.433Z,25.39
2016-04-25T12:16:21.404Z,25.45
2016-04-25T12:17:21.407Z,25.48
2016-04-25T12:18:21.410Z,25.64
2016-04-25T12:19:21.882Z,25.69
2016-04-25T12:20:21.338Z,25.27
2016-04-25T12:21:21.324Z,24.7
2016-04-25T12:22:21.327Z,24.09
2016-04-25T12:23:21.299Z,23.63
2016-04-25T12:24:21.285Z,23.42
2016-04-25T12:25:21.273Z,23.78
2016-04-25T12:26:21.260Z,24.48
2016-04-25T12:27:21.856Z,25.29
2016-04-25T12:28:21.218Z,25.94
2016-04-25T12:29:21.705Z,26.65
2016-04-25T12:30:21.193Z,27.16
2016-04-25T12:31:21.179Z,27.3
2016-04-25T12:32:21.167Z,27.49
2016-04-25T12:33:21.138Z,27.71
2016-04-25T12:34:21.328Z,27.72
2016-04-25T12:35:21.159Z,27.76
2016-04-25T12:36:21.098Z,27.88
2016-04-25T12:37:21.086Z,28.01
2016-04-25T12:38:21.073Z,27.91
2016-04-25T12:39:21.060Z,27.86
2016-04-25T12:40:21.047Z,27.88
2016-04-25T12:41:21.034Z,27.86
2016-04-25T12:42:21.022Z,27.74
2016-04-25T12:43:21.164Z,27.72
2016-04-25T12:44:22.495Z,27.55
2016-04-25T12:45:21.030Z,27.45
2016-04-25T12:46:20.954Z,27.4
2016-04-25T12:47:20.942Z,27.23
2016-04-25T12:48:20.928Z,27.24
2016-04-25T12:49:21.352Z,27.2
2016-04-25T12:50:20.903Z,27.11
2016-04-25T12:51:21.155Z,26.98
2016-04-25T12:52:20.876Z,26.94
2016-04-25T12:53:20.863Z,26.86
2016-04-25T12:54:20.835Z,26.72
2016-04-25T12:55:20.853Z,26.54